Time;durP1;ratioP1;P1;durP2;ratioP2;P2;SDS_P1;SDS_P2;PMS_P1;PMS_P2;Temp;Humidity;BMP_temperature;BMP_pressure;BME280_temperature;BME280_humidity;BME280_pressure;Samples;Min_cycle;Max_cycle;Signal;HPM_P1;HPM_P2
2022/08/11 00:00:38;;;;;;;9.20;7.15;;;16.40;99.90;;;;;;5103650;28;20039;-74
2022/08/11 00:03:10;;;;;;;9.75;7.00;;;16.40;99.90;;;;;;5107626;27;20120;-75
2022/08/11 00:05:54;;;;;;;8.75;7.78;;;16.40;99.90;;;;;;5132181;27;20043;-76
2022/08/11 00:08:26;;;;;;;11.10;7.20;;;16.40;99.90;;;;;;5116249;27;20065;-76
2022/08/11 00:11:03;;;;;;;9.40;7.75;;;16.40;99.90;;;;;;5130847;27;20054;-75
2022/08/11 00:13:36;;;;;;;10.63;8.30;;;16.30;99.90;;;;;;5093606;28;20054;-76
2022/08/11 00:16:09;;;;;;;10.75;7.28;;;16.40;99.90;;;;;;5118116;27;20075;-76
2022/08/11 00:18:41;;;;;;;11.68;7.75;;;16.30;99.90;;;;;;5106507;27;20047;-75
2022/08/11 00:21:08;;;;;;;15.10;8.23;;;16.30;99.90;;;;;;5133794;27;20436;-76
2022/08/11 00:23:41;;;;;;;11.10;8.35;;;16.30;99.90;;;;;;5130806;27;20043;-76
2022/08/11 00:26:07;;;;;;;10.43;8.02;;;16.20;99.90;;;;;;5129103;27;20059;-81
2022/08/11 00:28:34;;;;;;;10.27;8.30;;;16.20;99.90;;;;;;5102050;27;20043;-76
2022/08/11 00:31:27;;;;;;;11.75;8.32;;;16.10;99.90;;;;;;5112713;28;20051;-76
2022/08/11 00:33:54;;;;;;;12.40;8.10;;;16.10;99.90;;;;;;5111491;28;20067;-76
2022/08/11 00:36:36;;;;;;;14.65;8.32;;;16.00;99.90;;;;;;5104089;27;20035;-76
2022/08/11 00:39:04;;;;;;;10.65;8.02;;;16.00;99.90;;;;;;5110496;28;20054;-76
2022/08/11 00:41:57;;;;;;;11.02;7.53;;;15.90;99.90;;;;;;5133108;27;20454;-75
2022/08/11 00:44:36;;;;;;;10.32;7.70;;;15.90;99.90;;;;;;5094493;27;20043;-76
2022/08/11 00:47:46;;;;;;;9.63;7.72;;;15.90;99.90;;;;;;5084491;28;20047;-77
2022/08/11 00:50:18;;;;;;;11.80;8.07;;;15.90;99.90;;;;;;5072137;28;20558;-76
2022/08/11 00:53:07;;;;;;;12.70;8.32;;;15.90;99.90;;;;;;5097733;28;20043;-75
2022/08/11 00:55:45;;;;;;;9.00;7.38;;;15.80;99.90;;;;;;5111099;28;20080;-76
2022/08/11 00:58:31;;;;;;;10.77;7.93;;;15.80;99.90;;;;;;5093424;28;20472;-75
2022/08/11 01:01:24;;;;;;;9.23;7.53;;;15.70;99.90;;;;;;5106994;28;20047;-75
2022/08/11 01:04:07;;;;;;;9.55;7.55;;;15.70;99.90;;;;;;5096299;28;20043;-76
2022/08/11 01:06:57;;;;;;;10.65;7.30;;;15.70;99.90;;;;;;5077904;28;20058;-76
2022/08/11 01:09:50;;;;;;;13.95;7.43;;;15.70;99.90;;;;;;5090387;28;20051;-76
2022/08/11 01:12:45;;;;;;;9.93;7.85;;;15.70;99.90;;;;;;5101145;27;20131;-76
2022/08/11 01:15:52;;;;;;;9.23;7.05;;;15.60;99.90;;;;;;5112488;27;20043;-75
2022/08/11 01:18:38;;;;;;;7.65;6.85;;;15.60;99.90;;;;;;5091093;28;20075;-75
2022/08/11 01:21:24;;;;;;;10.35;7.68;;;15.60;99.90;;;;;;5110370;28;20478;-75
2022/08/11 01:24:24;;;;;;;11.30;7.55;;;15.60;99.90;;;;;;5069444;28;20089;-77
2022/08/11 01:27:07;;;;;;;10.18;7.63;;;15.40;99.90;;;;;;5096671;28;20051;-75
2022/08/11 01:29:52;;;;;;;10.80;6.78;;;15.60;99.90;;;;;;5108633;28;20042;-76
2022/08/11 01:32:36;;;;;;;10.15;7.05;;;15.60;99.90;;;;;;5078426;28;20064;-76
2022/08/11 01:35:24;;;;;;;12.10;6.93;;;15.50;99.90;;;;;;5098875;28;20055;-76
2022/08/11 01:38:37;;;;;;;11.77;7.25;;;15.60;99.90;;;;;;5095246;28;20039;-77
2022/08/11 01:44:36;;;;;;;10.45;6.78;;;15.50;99.90;;;;;;5106360;28;20047;-75
2022/08/11 01:44:59;;;;;;;11.68;6.97;;;15.50;99.90;;;;;;5108036;28;20072;-75
2022/08/11 01:47:50;;;;;;;10.05;7.38;;;15.50;99.90;;;;;;5072244;28;20044;-74
2022/08/11 01:50:47;;;;;;;10.95;7.03;;;15.50;99.90;;;;;;5088959;28;20127;-75
2022/08/11 01:53:32;;;;;;;9.05;7.40;;;15.50;99.90;;;;;;5088445;28;20052;-75
2022/08/11 01:56:25;;;;;;;10.80;7.28;;;15.50;99.90;;;;;;5090710;28;20051;-76
2022/08/11 01:59:20;;;;;;;10.43;7.45;;;15.40;99.90;;;;;;5087056;28;20052;-76
2022/08/11 02:02:04;;;;;;;11.82;8.18;;;15.40;99.90;;;;;;5090111;28;20441;-75
2022/08/11 02:04:56;;;;;;;8.95;6.90;;;15.40;99.90;;;;;;5089044;28;20486;-76
2022/08/11 02:07:37;;;;;;;10.40;7.45;;;15.40;99.90;;;;;;5077067;28;20130;-76
2022/08/11 02:13:39;;;;;;;9.75;7.25;;;15.30;99.90;;;;;;5095338;28;20077;-76
2022/08/11 02:16:20;;;;;;;9.15;7.60;;;15.30;99.90;;;;;;5115571;27;20051;-76
2022/08/11 02:24:59;;;;;;;10.52;8.07;;;15.30;99.90;;;;;;5123259;28;20573;-76
2022/08/11 02:27:43;;;;;;;10.75;7.45;;;15.20;99.90;;;;;;5104612;27;20039;-73
2022/08/11 02:30:23;;;;;;;10.10;7.32;;;15.10;99.90;;;;;;5130966;27;20067;-76
2022/08/11 02:33:36;;;;;;;11.35;7.47;;;15.10;99.90;;;;;;5129078;27;20040;-76
2022/08/11 02:36:23;;;;;;;11.88;7.85;;;15.10;99.90;;;;;;5062012;28;20049;-77
2022/08/11 02:38:55;;;;;;;9.63;6.93;;;15.10;99.90;;;;;;5118241;28;20541;-77
2022/08/11 02:44:41;;;;;;;11.98;7.65;;;15.20;99.90;;;;;;5089564;27;20050;-77
2022/08/11 02:47:39;;;;;;;9.43;7.03;;;15.20;99.90;;;;;;5073807;27;20101;-76
2022/08/11 02:50:16;;;;;;;9.65;7.13;;;15.20;99.90;;;;;;5110127;28;20167;-76
2022/08/11 02:53:06;;;;;;;8.43;6.95;;;15.10;99.90;;;;;;5109738;28;20052;-75
2022/08/11 02:55:40;;;;;;;9.93;7.07;;;15.10;99.90;;;;;;5112880;28;20517;-76
2022/08/11 02:58:27;;;;;;;10.32;7.30;;;15.10;99.90;;;;;;5104007;27;20161;-77
2022/08/11 03:01:04;;;;;;;8.48;6.70;;;15.10;99.90;;;;;;5135273;27;20497;-76
2022/08/11 03:03:38;;;;;;;10.05;7.40;;;15.10;99.90;;;;;;5129383;27;20035;-76
2022/08/11 03:06:27;;;;;;;9.07;6.90;;;15.10;99.90;;;;;;5113221;28;20379;-76
2022/08/11 03:09:03;;;;;;;7.68;6.50;;;15.00;99.90;;;;;;5086083;28;20317;-76
2022/08/11 03:18:36;;;;;;;7.38;6.00;;;15.00;99.90;;;;;;5104395;27;20051;-77
2022/08/11 03:21:25;;;;;;;8.07;6.10;;;14.90;99.90;;;;;;5124965;27;20125;-76
2022/08/11 03:24:08;;;;;;;9.25;6.35;;;14.90;99.90;;;;;;5128983;27;20047;-76
2022/08/11 03:26:55;;;;;;;11.23;6.47;;;14.90;99.90;;;;;;5099847;28;20055;-77
2022/08/11 03:29:34;;;;;;;9.93;6.30;;;14.90;99.90;;;;;;5125871;27;20035;-77
2022/08/11 03:32:25;;;;;;;9.27;6.82;;;14.90;99.90;;;;;;5133022;27;20043;-77
2022/08/11 03:34:54;;;;;;;9.18;6.05;;;14.90;99.90;;;;;;5115470;27;20418;-77
2022/08/11 03:37:53;;;;;;;9.27;5.78;;;14.80;99.90;;;;;;5098152;28;20048;-77
2022/08/11 03:43:53;;;;;;;11.57;7.00;;;14.80;99.90;;;;;;5110815;28;20120;-76
2022/08/11 03:46:35;;;;;;;8.85;6.68;;;14.80;99.90;;;;;;5102791;28;20104;-77
2022/08/11 03:49:34;;;;;;;7.97;6.43;;;14.80;99.90;;;;;;5127820;27;20568;-78
2022/08/11 03:52:29;;;;;;;9.70;6.88;;;14.80;99.90;;;;;;5109215;27;20154;-77
2022/08/11 03:55:12;;;;;;;9.40;7.50;;;14.80;99.90;;;;;;5112761;27;20104;-76
2022/08/11 03:58:08;;;;;;;12.45;7.97;;;14.80;99.90;;;;;;5096737;27;20035;-76
2022/08/11 04:01:05;;;;;;;9.70;7.35;;;14.70;99.90;;;;;;5113268;28;20128;-75
2022/08/11 04:03:56;;;;;;;11.00;8.70;;;14.80;99.90;;;;;;5123532;27;20127;-76
2022/08/11 04:07:00;;;;;;;12.70;9.65;;;14.70;99.90;;;;;;5110111;27;20043;-81
2022/08/11 04:10:00;;;;;;;13.60;8.88;;;14.80;99.90;;;;;;5099883;28;20093;-77
2022/08/11 04:12:51;;;;;;;11.23;8.07;;;14.70;99.90;;;;;;5071625;27;20046;-76
2022/08/11 04:18:44;;;;;;;14.10;8.75;;;14.70;99.90;;;;;;5098886;27;20063;-77
2022/08/11 04:21:40;;;;;;;12.25;8.77;;;14.70;99.90;;;;;;5094357;28;20099;-76
2022/08/11 04:24:36;;;;;;;11.05;8.75;;;14.70;99.90;;;;;;5103045;28;20044;-76
2022/08/11 04:27:34;;;;;;;13.23;9.40;;;14.70;99.90;;;;;;5076647;28;20067;-76
2022/08/11 04:30:06;;;;;;;11.27;9.02;;;14.70;99.90;;;;;;5110640;28;20074;-76
2022/08/11 04:32:45;;;;;;;11.80;9.27;;;14.70;99.90;;;;;;5108046;28;20504;-76
2022/08/11 04:35:23;;;;;;;12.85;8.52;;;14.70;99.90;;;;;;5100258;28;20653;-77
2022/08/11 04:38:26;;;;;;;12.63;8.48;;;14.80;99.90;;;;;;5073868;28;20105;-76
2022/08/11 04:41:15;;;;;;;15.73;9.82;;;14.80;99.90;;;;;;5092242;28;20055;-76
2022/08/11 04:44:24;;;;;;;12.90;9.48;;;14.80;99.90;;;;;;5102652;28;20043;-77
2022/08/11 04:47:09;;;;;;;14.48;9.77;;;14.90;99.90;;;;;;5083734;28;20035;-76
2022/08/11 05:02:13;;;;;;;19.70;12.15;;;15.10;99.90;;;;;;5112140;28;20077;-77
2022/08/11 05:08:08;;;;;;;19.63;12.98;;;15.10;99.90;;;;;;5099177;27;20452;-76
2022/08/11 05:10:52;;;;;;;21.05;13.32;;;15.20;99.90;;;;;;5131135;27;20054;-76
2022/08/11 05:36:32;;;;;;;25.38;16.02;;;16.20;99.90;;;;;;5099314;28;20050;-76
2022/08/11 05:58:35;;;;;;;15.13;11.93;;;18.20;99.90;;;;;;5085114;28;20047;-78
2022/08/11 06:01:01;;;;;;;;;;;18.30;99.90;;;;;;5092816;28;20629;-75
2022/08/11 06:03:29;;;;;;;17.63;11.90;;;18.60;99.90;;;;;;5099655;28;19955;-80
2022/08/11 06:05:56;;;;;;;15.50;10.90;;;18.70;99.90;;;;;;5108288;28;20047;-76
2022/08/11 06:08:35;;;;;;;15.30;10.07;;;18.90;99.90;;;;;;5093465;27;20043;-78
2022/08/11 06:11:04;;;;;;;13.38;9.50;;;19.00;99.90;;;;;;5118392;27;20039;-78
2022/08/11 06:13:31;;;;;;;13.93;9.85;;;19.20;99.90;;;;;;5116786;27;20582;-77
2022/08/11 06:15:57;;;;;;;14.32;9.80;;;19.10;99.90;;;;;;5117047;27;20553;-79
2022/08/11 06:18:24;;;;;;;12.93;9.88;;;19.30;99.90;;;;;;5091532;27;20092;-77
2022/08/11 06:20:59;;;;;;;12.07;8.93;;;19.50;99.90;;;;;;5099088;28;20044;-77
2022/08/11 06:23:31;;;;;;;11.07;8.43;;;19.70;99.90;;;;;;5096360;28;20529;-77
2022/08/11 06:25:58;;;;;;;10.43;8.40;;;19.90;99.90;;;;;;5098945;28;20081;-78
2022/08/11 06:28:36;;;;;;;9.77;7.55;;;20.00;99.90;;;;;;5084662;28;20510;-77
2022/08/11 06:31:15;;;;;;;12.93;8.13;;;20.10;99.90;;;;;;5101729;28;20114;-78
2022/08/11 06:34:04;;;;;;;11.80;7.47;;;20.00;99.90;;;;;;5098959;28;20494;-79
2022/08/11 06:36:34;;;;;;;11.10;7.82;;;20.30;99.90;;;;;;5079208;28;20564;-77
2022/08/11 06:39:12;;;;;;;10.43;7.10;;;20.20;99.90;;;;;;5096923;28;20044;-78
2022/08/11 06:41:45;;;;;;;10.65;7.85;;;20.30;99.90;;;;;;5090567;28;20059;-77
2022/08/11 06:44:11;;;;;;;10.73;7.25;;;20.40;99.90;;;;;;5098537;28;20510;-79
2022/08/11 06:46:43;;;;;;;8.73;7.20;;;20.40;99.90;;;;;;5084689;28;20040;-78
2022/08/11 06:52:08;;;;;;;8.40;6.90;;;20.50;99.90;;;;;;5116880;28;20116;-77
2022/08/11 06:54:43;;;;;;;8.43;6.55;;;20.50;99.90;;;;;;5096247;28;20458;-76
2022/08/11 07:00:26;;;;;;;9.48;6.63;;;20.40;99.90;;;;;;5113796;28;20116;-76
2022/08/11 07:03:11;;;;;;;13.13;7.53;;;20.30;99.90;;;;;;5108435;28;20044;-76
2022/08/11 07:05:44;;;;;;;11.20;6.65;;;20.40;99.90;;;;;;5099266;28;20051;-76
2022/08/11 07:17:13;;;;;;;8.18;6.60;;;20.50;99.90;;;;;;5078664;28;20413;-75
2022/08/11 07:31:00;;;;;;;11.13;5.55;;;20.80;99.90;;;;;;5092841;28;20097;-77
2022/08/11 07:33:44;;;;;;;11.25;5.90;;;20.90;99.90;;;;;;5116057;27;20035;-79
2022/08/11 07:36:11;;;;;;;10.15;5.70;;;20.90;99.90;;;;;;5115665;28;20046;-78
2022/08/11 07:38:42;;;;;;;8.25;5.60;;;21.10;99.90;;;;;;5110213;28;20416;-78
2022/08/11 07:41:13;;;;;;;6.70;5.28;;;21.10;99.90;;;;;;5125832;27;20038;-78
2022/08/11 07:43:41;;;;;;;9.25;5.15;;;21.20;99.90;;;;;;5109577;27;20048;-78
2022/08/11 07:54:25;;;;;;;6.20;4.28;;;21.40;99.90;;;;;;5103915;28;20100;-78
2022/08/11 07:56:52;;;;;;;5.97;4.13;;;21.40;99.90;;;;;;5085153;28;20144;-78
2022/08/11 08:18:37;;;;;;;5.53;3.22;;;21.90;99.90;;;;;;5112056;27;20054;-80
2022/08/11 08:21:13;;;;;;;6.78;2.80;;;21.90;99.90;;;;;;5119925;27;20414;-79
2022/08/11 08:23:41;;;;;;;5.07;2.85;;;22.00;99.90;;;;;;5115321;27;20574;-78
2022/08/11 08:26:57;;;;;;;4.18;2.78;;;22.00;99.90;;;;;;5118660;27;20490;-83
2022/08/11 08:30:46;;;;;;;5.80;2.63;;;22.20;99.90;;;;;;5118565;27;20130;-80
2022/08/11 08:31:44;;;;;;;6.03;2.40;;;22.30;99.90;;;;;;5119136;27;20036;-80
2022/08/11 08:34:12;;;;;;;3.40;2.20;;;22.40;99.90;;;;;;5122693;27;20035;-79
2022/08/11 08:36:43;;;;;;;7.30;2.33;;;22.40;99.90;;;;;;5106878;27;20047;-79
2022/08/11 08:39:10;;;;;;;3.80;2.20;;;22.50;99.90;;;;;;5119583;27;20445;-79
2022/08/11 08:41:38;;;;;;;4.25;2.28;;;22.50;99.90;;;;;;5118165;27;20052;-79
2022/08/11 08:44:08;;;;;;;4.80;1.95;;;22.60;99.90;;;;;;5121305;27;20043;-80
2022/08/11 08:46:39;;;;;;;5.05;2.03;;;22.70;99.90;;;;;;5111998;27;20073;-80
2022/08/11 08:49:09;;;;;;;5.50;1.90;;;22.70;99.90;;;;;;5126487;27;20383;-80
2022/08/11 08:51:38;;;;;;;3.22;1.55;;;22.80;99.90;;;;;;5129165;27;20069;-79
2022/08/11 08:54:07;;;;;;;4.68;1.67;;;22.90;99.90;;;;;;5129837;27;20075;-81
2022/08/11 08:56:35;;;;;;;4.70;1.95;;;23.10;99.90;;;;;;5108979;27;20050;-81
2022/08/11 08:59:02;;;;;;;3.90;1.63;;;23.10;99.90;;;;;;5098328;27;20043;-81
2022/08/11 09:01:46;;;;;;;4.20;2.00;;;23.10;99.90;;;;;;5105276;28;20040;-79
2022/08/11 09:04:14;;;;;;;7.05;2.00;;;23.30;99.90;;;;;;5102911;28;20043;-80
2022/08/11 09:06:43;;;;;;;3.50;1.85;;;23.50;99.90;;;;;;5084358;28;20067;-78
2022/08/11 09:09:13;;;;;;;2.28;1.42;;;23.50;99.90;;;;;;5097657;28;20069;-81
2022/08/11 09:11:49;;;;;;;3.70;1.40;;;23.60;99.90;;;;;;5082633;28;20105;-79
2022/08/11 09:14:59;;;;;;;6.72;1.60;;;23.70;99.90;;;;;;5099541;28;20044;-81
2022/08/11 09:17:10;;;;;;;3.20;1.70;;;23.90;99.90;;;;;;5066400;28;20044;-81
2022/08/11 09:19:36;;;;;;;7.15;1.58;;;24.00;99.90;;;;;;5099813;28;20087;-81
2022/08/11 09:27:32;;;;;;;2.95;1.40;;;24.30;99.90;;;;;;5074978;28;20055;-82
2022/08/11 09:29:58;;;;;;;2.80;1.17;;;24.30;99.90;;;;;;5109693;28;20051;-81
2022/08/11 09:32:27;;;;;;;2.40;1.20;;;24.40;99.90;;;;;;5109385;28;20047;-81
2022/08/11 09:34:53;;;;;;;4.13;1.17;;;24.40;99.90;;;;;;5103810;28;20063;-79
2022/08/11 09:45:38;;;;;;;3.90;1.40;;;24.60;99.90;;;;;;5100206;28;20060;-74
2022/08/11 09:48:06;;;;;;;5.20;1.13;;;24.80;99.90;;;;;;5080575;28;20047;-73
2022/08/11 09:50:33;;;;;;;2.55;1.10;;;24.90;99.90;;;;;;5105146;28;20104;-78
2022/08/11 09:53:02;;;;;;;2.95;0.90;;;24.90;99.90;;;;;;5101480;28;20703;-78
2022/08/11 09:55:28;;;;;;;2.00;1.10;;;25.00;99.90;;;;;;5092619;28;20047;-78
2022/08/11 09:58:13;;;;;;;3.67;1.20;;;25.10;99.90;;;;;;5082721;27;20035;-79
2022/08/11 10:00:39;;;;;;;2.95;1.35;;;25.00;99.90;;;;;;5111196;28;20172;-80
2022/08/11 10:03:32;;;;;;;2.33;1.30;;;25.10;99.90;;;;;;5115512;27;20038;-77
2022/08/11 10:08:50;;;;;;;2.35;1.27;;;25.30;99.90;;;;;;5102394;27;20051;-80
2022/08/11 10:11:20;;;;;;;3.50;1.30;;;25.30;99.90;;;;;;5101641;28;20027;-78
2022/08/11 10:16:39;;;;;;;2.72;0.98;;;25.40;99.90;;;;;;5086319;28;20107;-78
2022/08/11 10:19:05;;;;;;;3.42;1.00;;;25.50;99.90;;;;;;5099194;28;20043;-78
2022/08/11 10:27:21;;;;;;;2.75;1.23;;;25.60;99.90;;;;;;5084141;28;20077;-77
2022/08/11 10:35:19;;;;;;;3.95;1.10;;;25.70;99.50;;;;;;5098430;28;20054;-80
2022/08/11 10:37:46;;;;;;;3.15;1.08;;;25.90;96.30;;;;;;5089013;28;20116;-78
2022/08/11 10:40:17;;;;;;;2.72;1.23;;;25.80;96.30;;;;;;5110709;28;20043;-79
2022/08/11 10:43:02;;;;;;;1.63;0.85;;;25.80;97.10;;;;;;5102801;28;20060;-79
2022/08/11 10:48:21;;;;;;;5.78;1.25;;;26.10;98.40;;;;;;5084246;28;20043;-78
2022/08/11 10:59:09;;;;;;;5.53;1.17;;;26.20;93.90;;;;;;5106045;28;20105;-80
2022/08/11 11:01:37;;;;;;;;;;;26.30;94.40;;;;;;5109945;28;20410;-82
2022/08/11 11:04:19;;;;;;;1.33;0.90;;;26.30;92.30;;;;;;5107916;28;19920;-81
2022/08/11 11:07:15;;;;;;;4.18;0.90;;;26.40;91.30;;;;;;5095019;28;20047;-81
2022/08/11 11:09:47;;;;;;;4.03;1.10;;;26.30;89.90;;;;;;5109485;28;20054;-82
2022/08/11 11:18:14;;;;;;;5.85;1.17;;;26.60;91.10;;;;;;5077675;28;20478;-82
2022/08/11 11:20:41;;;;;;;4.07;1.00;;;26.70;88.30;;;;;;5101354;28;20035;-82
2022/08/11 11:23:15;;;;;;;3.33;0.85;;;26.60;88.80;;;;;;5112139;28;20044;-81
2022/08/11 11:26:05;;;;;;;4.50;0.85;;;26.60;90.20;;;;;;5102599;28;20498;-82
2022/08/11 11:28:46;;;;;;;6.13;0.98;;;26.60;89.30;;;;;;5102620;27;20087;-81
2022/08/11 11:31:34;;;;;;;2.13;1.05;;;26.80;90.30;;;;;;5119039;27;20108;-81
2022/08/11 11:34:21;;;;;;;4.55;0.98;;;26.70;85.10;;;;;;5107825;27;20596;-81
2022/08/11 11:36:55;;;;;;;1.98;0.80;;;26.70;86.60;;;;;;5076537;28;20059;-81
2022/08/11 11:39:25;;;;;;;1.33;0.80;;;26.70;88.30;;;;;;5087325;28;20530;-80
2022/08/11 11:41:55;;;;;;;4.50;0.77;;;26.60;88.60;;;;;;5101573;28;20072;-80
2022/08/11 11:44:22;;;;;;;2.30;0.80;;;26.70;88.30;;;;;;5095443;28;20044;-83
2022/08/11 11:46:49;;;;;;;1.55;0.75;;;26.80;87.00;;;;;;5090719;28;20058;-78
2022/08/11 11:49:22;;;;;;;4.13;0.88;;;27.00;85.00;;;;;;5117394;27;20042;-82
2022/08/11 11:51:51;;;;;;;5.47;1.10;;;27.00;81.70;;;;;;5122693;27;20055;-81
2022/08/11 11:54:30;;;;;;;3.63;0.93;;;27.10;83.10;;;;;;5122547;27;20035;-79
2022/08/11 11:56:57;;;;;;;2.03;0.90;;;27.10;83.50;;;;;;5108999;27;20084;-80
2022/08/11 12:02:13;;;;;;;2.05;0.77;;;27.20;81.10;;;;;;5121143;27;20046;-80
2022/08/11 12:04:46;;;;;;;2.45;0.80;;;27.10;80.30;;;;;;5120428;27;20387;-80
2022/08/11 12:09:58;;;;;;;2.55;0.93;;;27.20;83.50;;;;;;5123365;27;20062;-81
2022/08/11 12:15:10;;;;;;;3.22;1.10;;;27.40;82.00;;;;;;5120233;27;20054;-80
2022/08/11 12:17:37;;;;;;;2.90;1.02;;;27.40;82.50;;;;;;5099367;27;20123;-80
2022/08/11 12:20:04;;;;;;;7.38;0.90;;;27.40;81.90;;;;;;5115281;27;20050;-81
2022/08/11 12:28:01;;;;;;;1.98;0.90;;;27.20;78.40;;;;;;5115894;27;20051;-81
2022/08/11 12:30:27;;;;;;;1.85;0.77;;;27.30;81.60;;;;;;5111512;28;20047;-80
2022/08/11 12:32:55;;;;;;;2.55;0.80;;;27.50;80.50;;;;;;5117219;27;20092;-81
2022/08/11 12:35:21;;;;;;;1.52;1.02;;;27.60;81.30;;;;;;5123416;27;20565;-80
2022/08/11 12:37:50;;;;;;;0.80;0.50;;;27.50;78.80;;;;;;5101347;27;20100;-81
2022/08/11 12:46:24;;;;;;;4.25;0.95;;;27.60;76.40;;;;;;5109625;28;20139;-81
2022/08/11 12:51:57;;;;;;;4.45;0.80;;;27.50;77.40;;;;;;5112630;28;20039;-81
2022/08/11 12:54:56;;;;;;;1.75;0.70;;;27.50;77.70;;;;;;5110203;28;20051;-81
2022/08/11 13:06:07;;;;;;;3.17;0.75;;;27.70;76.10;;;;;;5112279;28;20449;-81
2022/08/11 13:08:35;;;;;;;1.80;0.52;;;27.60;75.60;;;;;;5098758;28;20053;-80
2022/08/11 13:13:48;;;;;;;5.13;0.77;;;27.80;76.00;;;;;;5099837;27;20481;-80
2022/08/11 13:16:15;;;;;;;2.55;0.70;;;27.70;74.80;;;;;;5092285;28;20044;-79
2022/08/11 13:18:42;;;;;;;2.53;1.02;;;27.70;75.30;;;;;;5101888;28;20059;-79
2022/08/11 13:21:12;;;;;;;1.13;0.60;;;27.70;75.50;;;;;;5110068;28;20086;-80
2022/08/11 13:23:39;;;;;;;5.05;0.73;;;27.90;74.00;;;;;;5110493;28;20048;-77
2022/08/11 13:26:07;;;;;;;5.60;0.80;;;27.90;74.70;;;;;;5098985;28;20048;-78
2022/08/11 13:28:38;;;;;;;2.58;0.90;;;27.90;75.30;;;;;;5092183;28;20099;-80
2022/08/11 13:31:11;;;;;;;1.63;0.60;;;27.90;74.80;;;;;;5124234;27;20126;-79
2022/08/11 13:34:07;;;;;;;3.13;0.82;;;27.90;72.50;;;;;;5131212;27;20051;-80
2022/08/11 13:36:34;;;;;;;3.67;0.90;;;27.90;73.10;;;;;;5106173;27;20532;-79
2022/08/11 13:39:02;;;;;;;4.03;0.82;;;27.90;73.10;;;;;;5129376;27;20047;-80
2022/08/11 13:41:38;;;;;;;2.90;0.68;;;27.90;73.70;;;;;;5131829;27;20035;-80
2022/08/11 13:44:09;;;;;;;4.50;0.80;;;28.00;74.30;;;;;;5107202;27;20044;-80
2022/08/11 13:46:35;;;;;;;5.18;0.63;;;28.00;74.10;;;;;;5094489;28;20422;-80
2022/08/11 13:49:02;;;;;;;5.30;0.80;;;28.00;74.80;;;;;;5108416;28;20116;-80
2022/08/11 13:51:30;;;;;;;1.25;0.77;;;28.00;75.00;;;;;;5111485;28;20047;-81
2022/08/11 13:54:05;;;;;;;2.42;0.70;;;28.00;73.60;;;;;;5126060;27;20047;-81
2022/08/11 13:56:33;;;;;;;1.20;0.70;;;28.00;72.90;;;;;;5117844;27;20069;-79
2022/08/11 13:59:02;;;;;;;3.80;0.80;;;28.20;72.70;;;;;;5128900;27;20043;-79
2022/08/11 14:01:31;;;;;;;3.00;0.60;;;28.20;72.60;;;;;;5111521;28;20119;-81
2022/08/11 14:04:06;;;;;;;1.52;0.60;;;28.20;72.00;;;;;;5121753;27;20044;-80
2022/08/11 14:06:34;;;;;;;3.13;0.68;;;28.00;70.80;;;;;;5097123;28;20077;-80
2022/08/11 14:09:02;;;;;;;3.83;1.13;;;28.00;71.40;;;;;;5108773;27;20044;-81
2022/08/11 14:14:32;;;;;;;4.57;0.93;;;27.90;71.00;;;;;;5091612;28;20051;-83
2022/08/11 14:17:03;;;;;;;4.18;0.60;;;28.00;73.00;;;;;;5087477;28;20052;-82
2022/08/11 14:19:34;;;;;;;2.83;0.60;;;28.00;71.00;;;;;;5097483;28;20052;-84
2022/08/11 14:22:07;;;;;;;;;;;28.00;69.00;;;;;;5109610;28;20055;-82
2022/08/11 14:24:41;;;;;;;1.88;0.60;;;28.00;70.70;;;;;;5120752;27;19919;-83
2022/08/11 14:27:10;;;;;;;4.18;0.75;;;28.00;69.50;;;;;;5092652;28;20135;-83
2022/08/11 14:29:38;;;;;;;2.97;0.60;;;28.10;70.00;;;;;;5091878;28;20498;-83
2022/08/11 14:32:08;;;;;;;3.88;1.00;;;28.30;69.50;;;;;;5110338;28;20083;-81
2022/08/11 14:34:35;;;;;;;;;;;28.40;75.40;;;;;;5124273;27;20047;-78
2022/08/11 14:37:05;;;;;;;6.38;1.40;;;28.40;79.70;;;;;;5105267;28;19926;-82
2022/08/11 14:39:37;;;;;;;5.50;1.17;;;28.60;79.50;;;;;;5120138;28;20036;-82
2022/08/11 14:47:37;;;;;;;4.22;0.95;;;28.60;78.80;;;;;;5102951;28;20501;-78
2022/08/11 14:50:05;;;;;;;3.28;1.00;;;28.70;78.70;;;;;;5126521;27;20039;-83
2022/08/11 14:52:37;;;;;;;1.48;0.90;;;28.70;79.00;;;;;;5114898;27;20519;-81
2022/08/11 14:57:50;;;;;;;2.35;1.13;;;28.70;78.60;;;;;;5107280;27;20088;-83
2022/08/11 15:00:17;;;;;;;3.97;0.90;;;28.80;80.40;;;;;;5122083;27;20550;-82
2022/08/11 15:05:30;;;;;;;1.83;0.80;;;28.60;78.40;;;;;;5121349;27;20050;-83
2022/08/11 15:07:58;;;;;;;3.83;0.95;;;28.60;78.60;;;;;;5106217;27;20043;-82
2022/08/11 15:10:24;;;;;;;3.38;0.77;;;28.60;77.70;;;;;;5121987;27;20551;-82
2022/08/11 15:12:51;;;;;;;2.10;1.00;;;28.60;77.60;;;;;;5119990;27;20047;-80
2022/08/11 15:18:05;;;;;;;2.95;1.17;;;28.50;77.00;;;;;;5118427;27;20405;-79
2022/08/11 15:26:10;;;;;;;2.83;0.80;;;28.50;76.70;;;;;;5114438;28;20086;-83
2022/08/11 15:37:26;;;;;;;3.15;0.90;;;28.60;76.40;;;;;;5098379;28;20082;-82
2022/08/11 15:46:09;;;;;;;2.60;0.80;;;28.50;76.10;;;;;;5124697;27;20047;-82
2022/08/11 15:48:45;;;;;;;3.55;1.00;;;28.50;77.30;;;;;;5112844;27;20042;-82
2022/08/11 15:51:21;;;;;;;3.53;1.10;;;28.30;76.10;;;;;;5118955;27;20122;-81
2022/08/11 15:53:57;;;;;;;1.70;0.70;;;28.30;76.70;;;;;;5120055;27;20047;-81
2022/08/11 15:56:27;;;;;;;5.50;1.00;;;28.40;77.00;;;;;;5114037;27;20051;-78
2022/08/11 16:04:29;;;;;;;5.15;0.98;;;28.10;76.80;;;;;;5121384;27;20065;-79
2022/08/11 16:07:10;;;;;;;2.13;0.80;;;28.20;76.80;;;;;;5106328;27;20493;-81
2022/08/11 16:09:58;;;;;;;2.65;0.80;;;28.10;77.70;;;;;;5121502;27;20103;-79
2022/08/11 16:12:29;;;;;;;5.00;1.08;;;28.10;77.40;;;;;;5117875;27;20044;-82
2022/08/11 16:17:46;;;;;;;3.50;1.38;;;27.80;78.00;;;;;;5099693;27;19934;-81
2022/08/11 16:20:14;;;;;;;6.68;1.20;;;28.00;79.40;;;;;;5111679;28;20055;-80
2022/08/11 16:22:43;;;;;;;4.80;1.70;;;28.00;79.50;;;;;;5107114;28;20051;-79
2022/08/11 16:25:14;;;;;;;3.03;1.52;;;28.00;78.40;;;;;;5092494;28;20552;-80
2022/08/11 16:27:48;;;;;;;5.20;1.27;;;28.00;78.60;;;;;;5076165;28;20051;-79
2022/08/11 16:30:14;;;;;;;5.45;1.20;;;27.90;77.70;;;;;;5111545;28;20071;-83
2022/08/11 16:32:43;;;;;;;4.43;1.30;;;27.90;77.80;;;;;;5115110;27;20054;-81
2022/08/11 16:40:51;;;;;;;5.05;1.20;;;27.70;78.80;;;;;;5120596;27;20054;-79
2022/08/11 16:48:46;;;;;;;4.97;1.40;;;27.60;80.20;;;;;;5095869;28;20044;-80
2022/08/11 16:51:13;;;;;;;5.50;1.42;;;27.40;80.40;;;;;;5100452;28;20054;-79
2022/08/11 16:53:43;;;;;;;2.10;1.00;;;27.40;81.20;;;;;;5101717;28;20047;-81
2022/08/11 16:56:15;;;;;;;6.25;1.30;;;27.40;81.50;;;;;;5092683;28;20036;-81
2022/08/11 17:01:26;;;;;;;3.28;1.13;;;27.30;82.30;;;;;;5100630;28;20113;-75
2022/08/11 17:18:01;;;;;;;4.30;1.35;;;26.70;83.40;;;;;;5095644;28;20104;-81
2022/08/11 17:20:28;;;;;;;3.65;1.30;;;26.60;84.30;;;;;;5111686;28;20097;-83
2022/08/11 17:25:40;;;;;;;1.98;0.90;;;26.50;86.40;;;;;;5111942;28;20418;-78
2022/08/11 17:28:07;;;;;;;2.05;1.17;;;26.40;87.40;;;;;;5093928;28;20527;-77
2022/08/11 17:36:06;;;;;;;4.88;1.70;;;26.20;90.20;;;;;;5109888;28;20047;-78
2022/08/11 17:38:32;;;;;;;4.95;1.70;;;26.10;90.70;;;;;;5096875;28;20463;-83
2022/08/11 17:49:23;;;;;;;3.35;1.67;;;25.80;92.90;;;;;;5129800;27;20137;-78
2022/08/11 18:00:08;;;;;;;4.95;2.20;;;25.30;95.60;;;;;;5093245;28;20118;-78
2022/08/11 18:05:33;;;;;;;5.30;1.95;;;25.10;97.30;;;;;;5104945;28;20530;-76
